Time;durP1;ratioP1;P1;durP2;ratioP2;P2;SDS_P1;SDS_P2;PMS_P1;PMS_P2;Temp;Humidity;BMP_temperature;BMP_pressure;BME280_temperature;BME280_humidity;BME280_pressure;Samples;Min_cycle;Max_cycle;Signal;HPM_P1;HPM_P2
2023/09/26 00:04:16;;;;;;;10.80;9.70;;;;;;;;;;2615099;54;20379;-81
2023/09/26 00:09:46;;;;;;;10.80;9.70;;;;;;;;;;2615849;54;20396;-81
2023/09/26 00:15:16;;;;;;;11.10;9.80;;;;;;;;;;2615783;54;20898;-80
2023/09/26 00:20:46;;;;;;;10.20;9.10;;;;;;;;;;2615773;54;20371;-80
2023/09/26 00:26:15;;;;;;;10.07;8.87;;;;;;;;;;2616117;54;20419;-80
2023/09/26 00:35:17;;;;;;;10.40;9.37;;;;;;;;;;2615415;54;20403;-80
2023/09/26 00:40:47;;;;;;;9.90;8.90;;;;;;;;;;2615402;54;20354;-81
2023/09/26 00:46:18;;;;;;;10.37;8.83;;;;;;;;;;2616437;54;20416;-80
2023/09/26 00:51:47;;;;;;;10.00;9.20;;;;;;;;;;2617025;54;20374;-82
2023/09/26 00:57:17;;;;;;;10.27;9.13;;;;;;;;;;2617343;54;20395;-80
2023/09/26 01:02:48;;;;;;;11.53;10.33;;;;;;;;;;2616338;54;20394;-80
2023/09/26 01:08:18;;;;;;;12.63;10.30;;;;;;;;;;2615998;54;20953;-80
2023/09/26 01:13:47;;;;;;;11.23;10.20;;;;;;;;;;2614744;54;20931;-80
2023/09/26 01:19:17;;;;;;;10.60;9.53;;;;;;;;;;2614607;54;20391;-79
2023/09/26 01:24:47;;;;;;;10.13;9.17;;;;;;;;;;2614922;54;20407;-80
2023/09/26 01:30:17;;;;;;;10.40;9.40;;;;;;;;;;2614782;54;20495;-81
2023/09/26 01:35:48;;;;;;;11.10;8.90;;;;;;;;;;2614953;54;20383;-82
2023/09/26 01:41:17;;;;;;;10.47;9.20;;;;;;;;;;2615634;54;20386;-80
2023/09/26 01:46:47;;;;;;;9.87;8.87;;;;;;;;;;2615233;54;20423;-81
2023/09/26 01:52:17;;;;;;;11.80;9.13;;;;;;;;;;2615988;54;20391;-82
2023/09/26 01:57:46;;;;;;;9.67;8.33;;;;;;;;;;2615472;54;20379;-80
2023/09/26 02:03:16;;;;;;;9.00;8.17;;;;;;;;;;2616319;54;20415;-80
2023/09/26 02:08:46;;;;;;;11.93;9.27;;;;;;;;;;2616795;31;20832;-80
2023/09/26 02:14:16;;;;;;;9.80;8.80;;;;;;;;;;2616570;46;20423;-79
2023/09/26 02:19:45;;;;;;;12.93;9.90;;;;;;;;;;2616530;54;20375;-79
2023/09/26 02:22:30;;;;;;;12.47;9.70;;;;;;;;;;2616146;54;20427;-80
2023/09/26 02:24:57;;;;;;;10.23;9.13;;;;;;;;;;2615280;50;20424;-81
2023/09/26 02:30:28;;;;;;;10.60;9.40;;;;;;;;;;2615700;54;20377;-79
2023/09/26 02:35:58;;;;;;;11.53;9.30;;;;;;;;;;2614964;54;20388;-80
2023/09/26 02:41:28;;;;;;;9.73;8.83;;;;;;;;;;2615872;54;20419;-80
2023/09/26 02:46:57;;;;;;;9.17;8.37;;;;;;;;;;2615552;54;20375;-79
2023/09/26 02:52:27;;;;;;;9.50;8.60;;;;;;;;;;2614537;54;20379;-80
2023/09/26 02:57:56;;;;;;;10.00;9.10;;;;;;;;;;2615759;54;20508;-79
2023/09/26 03:03:26;;;;;;;11.50;10.40;;;;;;;;;;2615633;54;20395;-79
2023/09/26 03:08:56;;;;;;;10.47;9.47;;;;;;;;;;2616075;54;20394;-79
2023/09/26 03:14:26;;;;;;;10.50;9.60;;;;;;;;;;2615967;54;20387;-79
2023/09/26 03:19:55;;;;;;;11.23;9.60;;;;;;;;;;2614783;54;20379;-78
2023/09/26 03:25:25;;;;;;;11.63;9.90;;;;;;;;;;2616321;54;20419;-79
2023/09/26 03:30:55;;;;;;;10.77;9.73;;;;;;;;;;2615670;54;21030;-79
2023/09/26 03:36:25;;;;;;;11.07;9.60;;;;;;;;;;2615129;54;20423;-79
2023/09/26 03:41:54;;;;;;;10.70;9.60;;;;;;;;;;2616132;54;20406;-78
2023/09/26 03:47:24;;;;;;;9.43;8.53;;;;;;;;;;2616085;54;20403;-79
2023/09/26 03:52:54;;;;;;;11.13;9.93;;;;;;;;;;2614325;54;20966;-78
2023/09/26 03:58:24;;;;;;;13.10;10.53;;;;;;;;;;2615150;54;20400;-78
2023/09/26 04:03:54;;;;;;;11.90;10.67;;;;;;;;;;2613150;54;20390;-78
2023/09/26 04:09:24;;;;;;;13.67;10.60;;;;;;;;;;2615646;54;20394;-80
2023/09/26 04:14:53;;;;;;;12.80;11.50;;;;;;;;;;2615303;54;20378;-79
2023/09/26 04:20:23;;;;;;;10.43;9.40;;;;;;;;;;2614345;54;20415;-78
2023/09/26 04:25:53;;;;;;;11.60;10.20;;;;;;;;;;2615896;54;20447;-79
2023/09/26 04:37:30;;;;;;;12.60;11.40;;;;;;;;;;2615490;39;20736;-78
2023/09/26 04:43:01;;;;;;;10.90;9.80;;;;;;;;;;2614754;46;20430;-79
2023/09/26 04:48:31;;;;;;;11.23;10.10;;;;;;;;;;2614694;54;20921;-79
2023/09/26 04:54:02;;;;;;;12.57;11.53;;;;;;;;;;2612792;46;20410;-79
2023/09/26 04:59:31;;;;;;;12.03;10.83;;;;;;;;;;2615479;54;20430;-79
2023/09/26 05:05:03;;;;;;;12.40;11.10;;;;;;;;;;2614257;54;20402;-79
2023/09/26 05:10:36;;;;;;;14.47;12.43;;;;;;;;;;2615860;54;20365;-79
2023/09/26 05:16:08;;;;;;;12.83;11.63;;;;;;;;;;2615726;46;20401;-78
2023/09/26 05:21:38;;;;;;;13.10;11.80;;;;;;;;;;2615583;31;20869;-77
2023/09/26 05:27:09;;;;;;;14.10;12.80;;;;;;;;;;2615585;54;20394;-77
2023/09/26 05:36:10;;;;;;;13.37;12.03;;;;;;;;;;2616146;54;20423;-78
2023/09/26 05:41:40;;;;;;;14.83;13.10;;;;;;;;;;2615356;54;20406;-78
2023/09/26 05:47:09;;;;;;;15.60;13.73;;;;;;;;;;2614936;54;20390;-78
2023/09/26 05:52:39;;;;;;;17.13;15.43;;;;;;;;;;2614616;54;20378;-78
2023/09/26 05:58:09;;;;;;;15.87;14.30;;;;;;;;;;2614932;54;20408;-78
2023/09/26 06:03:39;;;;;;;17.43;13.67;;;;;;;;;;2611015;39;20862;-78
2023/09/26 06:09:09;;;;;;;16.40;14.50;;;;;;;;;;2614747;54;20406;-78
2023/09/26 06:14:39;;;;;;;18.23;13.70;;;;;;;;;;2614931;54;20391;-78
2023/09/26 06:20:09;;;;;;;17.83;12.93;;;;;;;;;;2614328;54;20411;-78
2023/09/26 06:25:39;;;;;;;19.10;13.23;;;;;;;;;;2614688;54;20427;-78
2023/09/26 06:31:09;;;;;;;18.27;13.60;;;;;;;;;;2615336;54;20399;-79
2023/09/26 06:36:39;;;;;;;17.23;15.47;;;;;;;;;;2615201;54;20407;-79
2023/09/26 06:42:08;;;;;;;22.70;20.40;;;;;;;;;;2615538;54;20418;-78
2023/09/26 06:47:38;;;;;;;19.30;17.47;;;;;;;;;;2615386;54;20387;-78
2023/09/26 06:53:08;;;;;;;19.33;17.27;;;;;;;;;;2615218;39;20482;-78
2023/09/26 06:58:38;;;;;;;17.27;15.87;;;;;;;;;;2614193;54;20390;-78
2023/09/26 07:04:13;;;;;;;19.13;17.40;;;;;;;;;;2612396;54;20398;-78
2023/09/26 07:09:43;;;;;;;18.63;17.10;;;;;;;;;;2614875;54;20436;-79
2023/09/26 07:15:13;;;;;;;19.27;17.70;;;;;;;;;;2613495;54;20511;-78
2023/09/26 07:20:49;;;;;;;19.80;17.90;;;;;;;;;;2613868;31;20832;-79
2023/09/26 07:26:20;;;;;;;19.87;18.27;;;;;;;;;;2612842;54;21127;-79
2023/09/26 07:37:58;;;;;;;18.73;17.00;;;;;;;;;;2612393;54;21065;-79
2023/09/26 07:43:35;;;;;;;17.17;16.13;;;;;;;;;;2611970;54;20372;-79
2023/09/26 07:49:05;;;;;;;17.50;16.10;;;;;;;;;;2612484;54;20430;-79
2023/09/26 07:54:35;;;;;;;14.00;13.30;;;;;;;;;;2611295;54;20406;-79
2023/09/26 08:00:10;;;;;;;14.00;13.23;;;;;;;;;;2613048;54;20383;-79
2023/09/26 08:05:40;;;;;;;13.40;12.70;;;;;;;;;;2612649;54;20390;-78
2023/09/26 08:11:11;;;;;;;14.70;13.90;;;;;;;;;;2612718;54;20407;-77
2023/09/26 08:16:40;;;;;;;13.50;12.90;;;;;;;;;;2612468;39;20762;-77
2023/09/26 08:22:10;;;;;;;13.40;12.60;;;;;;;;;;2612266;54;20395;-77
2023/09/26 08:27:40;;;;;;;14.07;13.40;;;;;;;;;;2612034;39;20792;-77
2023/09/26 08:36:46;;;;;;;14.10;13.27;;;;;;;;;;2613770;54;20420;-77
2023/09/26 08:42:19;;;;;;;12.70;12.20;;;;;;;;;;2614306;54;20402;-77
2023/09/26 08:47:49;;;;;;;13.60;12.80;;;;;;;;;;2614724;54;20410;-77
2023/09/26 08:53:19;;;;;;;13.27;12.57;;;;;;;;;;2614661;31;20845;-77
2023/09/26 08:58:50;;;;;;;14.63;13.93;;;;;;;;;;2610241;54;20383;-77
2023/09/26 09:04:21;;;;;;;12.97;12.37;;;;;;;;;;2611080;54;20404;-76
2023/09/26 09:10:10;;;;;;;12.60;12.00;;;;;;;;;;2611765;54;20399;-76
2023/09/26 09:15:40;;;;;;;12.87;12.27;;;;;;;;;;2612094;54;20972;-76
2023/09/26 09:21:32;;;;;;;13.63;13.03;;;;;;;;;;2613982;54;20386;-77
2023/09/26 09:27:01;;;;;;;13.40;12.50;;;;;;;;;;2611029;54;20422;-77
2023/09/26 09:38:38;;;;;;;13.00;12.40;;;;;;;;;;2611972;54;20949;-78
2023/09/26 09:44:08;;;;;;;13.60;13.00;;;;;;;;;;2611646;39;20846;-77
2023/09/26 09:49:43;;;;;;;13.90;13.10;;;;;;;;;;2611390;54;20406;-77
2023/09/26 09:55:14;;;;;;;13.87;13.17;;;;;;;;;;2611397;54;20386;-78
2023/09/26 10:00:44;;;;;;;13.60;12.70;;;;;;;;;;2613140;54;20383;-80
2023/09/26 10:06:14;;;;;;;14.03;12.93;;;;;;;;;;2613916;54;20415;-75
2023/09/26 10:11:44;;;;;;;13.90;13.00;;;;;;;;;;2614740;54;20391;-78
2023/09/26 10:17:14;;;;;;;13.70;13.10;;;;;;;;;;2611221;54;20407;-79
2023/09/26 10:22:45;;;;;;;13.53;12.57;;;;;;;;;;2615737;54;20384;-78
2023/09/26 10:28:16;;;;;;;12.60;11.97;;;;;;;;;;2615714;54;20383;-79
2023/09/26 10:37:17;;;;;;;12.83;12.33;;;;;;;;;;2616738;54;20398;-79
2023/09/26 10:42:48;;;;;;;12.43;11.80;;;;;;;;;;2616859;54;20403;-79
2023/09/26 10:48:19;;;;;;;12.60;12.00;;;;;;;;;;2617079;39;20844;-79
2023/09/26 10:53:48;;;;;;;11.70;11.10;;;;;;;;;;2614021;54;21072;-80
2023/09/26 10:59:18;;;;;;;12.20;11.67;;;;;;;;;;2615333;54;20448;-78
2023/09/26 11:04:48;;;;;;;12.43;11.93;;;;;;;;;;2613261;54;20395;-79
2023/09/26 11:10:18;;;;;;;12.90;12.03;;;;;;;;;;2612135;54;20424;-78
2023/09/26 11:15:51;;;;;;;12.83;12.17;;;;;;;;;;2614603;54;20390;-79
2023/09/26 11:21:21;;;;;;;12.00;11.40;;;;;;;;;;2616542;54;20395;-78
2023/09/26 11:26:52;;;;;;;12.53;11.83;;;;;;;;;;2611864;54;20907;-78
2023/09/26 11:32:21;;;;;;;12.03;11.47;;;;;;;;;;2612537;54;20845;-78
2023/09/26 11:37:52;;;;;;;12.67;12.17;;;;;;;;;;2612629;54;20491;-78
2023/09/26 11:43:22;;;;;;;13.50;12.80;;;;;;;;;;2612220;54;20507;-79
2023/09/26 11:48:52;;;;;;;12.80;12.20;;;;;;;;;;2611141;54;20418;-78
2023/09/26 11:54:22;;;;;;;12.47;11.87;;;;;;;;;;2612850;54;20390;-76
2023/09/26 11:59:52;;;;;;;12.13;11.53;;;;;;;;;;2615365;54;21099;-79
2023/09/26 12:05:22;;;;;;;12.40;11.83;;;;;;;;;;2612137;54;20406;-76
2023/09/26 12:10:52;;;;;;;12.50;12.00;;;;;;;;;;2613602;39;20646;-77
2023/09/26 12:16:22;;;;;;;12.43;11.93;;;;;;;;;;2613101;54;20964;-78
2023/09/26 12:21:52;;;;;;;13.10;12.40;;;;;;;;;;2614959;54;20383;-79
2023/09/26 12:27:21;;;;;;;13.23;12.63;;;;;;;;;;2611958;54;20977;-76
2023/09/26 12:32:51;;;;;;;12.63;11.93;;;;;;;;;;2614627;54;20382;-77
2023/09/26 12:38:21;;;;;;;13.30;12.53;;;;;;;;;;2614236;54;20423;-77
2023/09/26 12:43:51;;;;;;;13.20;12.40;;;;;;;;;;2614568;54;20391;-78
2023/09/26 12:49:21;;;;;;;12.13;11.40;;;;;;;;;;2614361;54;20387;-77
2023/09/26 12:54:51;;;;;;;12.60;12.00;;;;;;;;;;2614093;54;20420;-77
2023/09/26 13:00:20;;;;;;;12.83;12.20;;;;;;;;;;2614209;54;20375;-77
2023/09/26 13:05:50;;;;;;;13.23;12.63;;;;;;;;;;2614179;54;20379;-76
2023/09/26 13:11:20;;;;;;;12.27;11.77;;;;;;;;;;2612383;54;20424;-78
2023/09/26 13:16:50;;;;;;;12.70;12.00;;;;;;;;;;2613087;54;20391;-77
2023/09/26 13:22:20;;;;;;;12.47;11.90;;;;;;;;;;2614140;54;20395;-77
2023/09/26 13:27:49;;;;;;;13.00;12.50;;;;;;;;;;2613803;54;20431;-77
2023/09/26 13:39:27;;;;;;;13.20;12.63;;;;;;;;;;2615272;54;20402;-79
2023/09/26 13:44:57;;;;;;;13.47;12.70;;;;;;;;;;2613576;54;20479;-77
2023/09/26 13:50:27;;;;;;;13.73;13.10;;;;;;;;;;2615594;54;20968;-76
2023/09/26 13:55:56;;;;;;;13.70;13.10;;;;;;;;;;2615448;54;20420;-76
2023/09/26 14:01:27;;;;;;;12.90;12.40;;;;;;;;;;2615560;54;20394;-78
2023/09/26 14:06:59;;;;;;;14.07;13.40;;;;;;;;;;2615681;54;20396;-76
2023/09/26 14:12:30;;;;;;;14.10;13.40;;;;;;;;;;2614773;54;20467;-76
2023/09/26 14:18:00;;;;;;;12.80;12.10;;;;;;;;;;2615399;54;20391;-77
2023/09/26 14:23:29;;;;;;;12.70;12.10;;;;;;;;;;2615603;54;20399;-77
2023/09/26 14:29:01;;;;;;;12.90;12.20;;;;;;;;;;2614255;54;20393;-77
2023/09/26 14:38:02;;;;;;;12.00;11.50;;;;;;;;;;2615035;54;21670;-78
2023/09/26 14:43:35;;;;;;;13.90;13.30;;;;;;;;;;2615304;54;20420;-79
2023/09/26 14:49:04;;;;;;;14.00;13.00;;;;;;;;;;2614704;54;20387;-80
2023/09/26 14:54:34;;;;;;;13.17;12.57;;;;;;;;;;2615640;54;20403;-77
2023/09/26 15:00:05;;;;;;;14.27;13.47;;;;;;;;;;2615419;54;20371;-77
2023/09/26 15:05:37;;;;;;;14.10;13.30;;;;;;;;;;2614945;54;20430;-78
2023/09/26 15:11:06;;;;;;;13.67;13.07;;;;;;;;;;2615438;54;20516;-78
2023/09/26 15:16:36;;;;;;;13.63;12.93;;;;;;;;;;2614857;54;20509;-79
2023/09/26 15:22:06;;;;;;;13.77;13.17;;;;;;;;;;2612836;54;20379;-79
2023/09/26 15:27:35;;;;;;;13.00;12.40;;;;;;;;;;2614968;54;20424;-77
2023/09/26 15:33:05;;;;;;;13.70;13.00;;;;;;;;;;2614564;39;20764;-77
2023/09/26 15:38:35;;;;;;;13.27;12.67;;;;;;;;;;2615102;54;20470;-78
2023/09/26 15:44:04;;;;;;;13.83;13.03;;;;;;;;;;2615281;39;20803;-78
2023/09/26 15:49:34;;;;;;;13.83;12.83;;;;;;;;;;2615530;39;20773;-77
2023/09/26 15:55:06;;;;;;;13.10;12.33;;;;;;;;;;2615290;39;20943;-78
2023/09/26 16:00:35;;;;;;;13.93;13.00;;;;;;;;;;2610969;54;20404;-78
2023/09/26 16:06:06;;;;;;;14.80;13.83;;;;;;;;;;2615052;54;20391;-80
2023/09/26 16:11:35;;;;;;;14.53;13.63;;;;;;;;;;2614269;54;20395;-80
2023/09/26 16:17:05;;;;;;;15.10;14.20;;;;;;;;;;2612073;54;20375;-79
2023/09/26 16:22:35;;;;;;;15.77;14.70;;;;;;;;;;2614326;54;20399;-79
2023/09/26 16:28:04;;;;;;;16.40;15.20;;;;;;;;;;2615212;54;20381;-80
2023/09/26 16:33:35;;;;;;;14.73;13.60;;;;;;;;;;2613440;54;20965;-79
2023/09/26 16:42:39;;;;;;;16.30;15.13;;;;;;;;;;2613884;54;20430;-79
2023/09/26 16:48:09;;;;;;;15.73;14.40;;;;;;;;;;2613797;39;20820;-79
2023/09/26 16:53:39;;;;;;;15.13;14.13;;;;;;;;;;2614569;54;20391;-80
2023/09/26 16:59:09;;;;;;;13.63;12.73;;;;;;;;;;2614006;54;20944;-86
2023/09/26 17:04:39;;;;;;;15.27;14.10;;;;;;;;;;2614592;54;20387;-81
2023/09/26 17:10:09;;;;;;;16.17;14.80;;;;;;;;;;2615218;54;20394;-79
2023/09/26 17:15:39;;;;;;;15.17;13.63;;;;;;;;;;2614294;54;21028;-79
2023/09/26 17:21:09;;;;;;;13.00;11.90;;;;;;;;;;2616466;54;20384;-81
2023/09/26 17:26:40;;;;;;;14.03;13.03;;;;;;;;;;2609321;54;20957;-79
2023/09/26 17:32:10;;;;;;;14.13;13.10;;;;;;;;;;2615402;39;21075;-79
2023/09/26 17:37:40;;;;;;;14.03;12.73;;;;;;;;;;2614837;54;20367;-79
2023/09/26 17:43:10;;;;;;;11.67;10.77;;;;;;;;;;2614717;54;20395;-79
2023/09/26 17:48:40;;;;;;;14.40;11.53;;;;;;;;;;2615575;54;20390;-79
2023/09/26 17:54:10;;;;;;;12.73;11.70;;;;;;;;;;2614529;54;20472;-79
2023/09/26 17:59:39;;;;;;;12.00;11.10;;;;;;;;;;2613988;54;20465;-80
2023/09/26 18:05:10;;;;;;;13.57;12.20;;;;;;;;;;2611342;54;20395;-79
2023/09/26 18:10:40;;;;;;;12.40;11.30;;;;;;;;;;2612802;54;20428;-79
2023/09/26 18:16:09;;;;;;;14.50;12.13;;;;;;;;;;2612954;46;20371;-79
2023/09/26 18:21:39;;;;;;;16.03;14.67;;;;;;;;;;2611281;54;20370;-77
2023/09/26 18:27:10;;;;;;;14.50;13.20;;;;;;;;;;2613968;54;20369;-79
2023/09/26 18:32:39;;;;;;;19.57;17.63;;;;;;;;;;2614823;54;20868;-78
2023/09/26 18:38:09;;;;;;;17.93;15.93;;;;;;;;;;2612974;39;20758;-79
2023/09/26 18:43:39;;;;;;;18.83;17.03;;;;;;;;;;2614132;54;20374;-79
2023/09/26 18:49:09;;;;;;;15.57;13.93;;;;;;;;;;2615166;54;20379;-78
2023/09/26 18:54:39;;;;;;;14.93;13.70;;;;;;;;;;2613564;54;20365;-79
2023/09/26 19:00:09;;;;;;;12.50;11.57;;;;;;;;;;2614908;54;20517;-79
2023/09/26 19:05:39;;;;;;;12.57;11.57;;;;;;;;;;2614906;54;20415;-79
2023/09/26 19:11:09;;;;;;;12.67;11.60;;;;;;;;;;2616254;39;20450;-81
2023/09/26 19:16:41;;;;;;;11.23;10.33;;;;;;;;;;2613498;54;20465;-79
2023/09/26 19:22:11;;;;;;;13.27;12.27;;;;;;;;;;2611852;54;20370;-80
2023/09/26 19:27:40;;;;;;;14.20;12.80;;;;;;;;;;2614646;54;20426;-80
2023/09/26 19:33:10;;;;;;;11.47;10.57;;;;;;;;;;2614381;54;20439;-80
2023/09/26 19:44:48;;;;;;;16.03;11.83;;;;;;;;;;2614512;54;20394;-80
2023/09/26 19:50:17;;;;;;;14.20;12.90;;;;;;;;;;2614216;54;20395;-80
2023/09/26 19:55:47;;;;;;;11.20;10.23;;;;;;;;;;2614773;54;20382;-79
2023/09/26 20:01:21;;;;;;;11.70;10.80;;;;;;;;;;2612061;54;20467;-79
2023/09/26 20:06:50;;;;;;;11.23;10.43;;;;;;;;;;2613606;54;20375;-80
2023/09/26 20:12:20;;;;;;;13.00;11.90;;;;;;;;;;2614692;54;20410;-80
2023/09/26 20:17:50;;;;;;;13.03;12.03;;;;;;;;;;2613894;54;20371;-80
2023/09/26 20:23:20;;;;;;;13.60;12.50;;;;;;;;;;2614604;54;20510;-79
2023/09/26 20:28:49;;;;;;;13.80;12.53;;;;;;;;;;2614589;54;20413;-79
2023/09/26 20:34:19;;;;;;;12.37;11.27;;;;;;;;;;2610911;54;20407;-81
2023/09/26 20:43:30;;;;;;;13.67;12.50;;;;;;;;;;2615124;54;20399;-80
2023/09/26 20:48:59;;;;;;;11.27;10.37;;;;;;;;;;2614480;54;20422;-80
2023/09/26 20:54:31;;;;;;;12.67;11.63;;;;;;;;;;2613124;54;20421;-79
2023/09/26 21:00:01;;;;;;;12.83;11.53;;;;;;;;;;2614171;31;21003;-79
2023/09/26 21:05:38;;;;;;;12.57;11.47;;;;;;;;;;2614780;39;20849;-79
2023/09/26 21:11:08;;;;;;;12.47;11.27;;;;;;;;;;2612029;54;20982;-78
2023/09/26 21:16:38;;;;;;;11.40;10.47;;;;;;;;;;2612681;54;20446;-79
2023/09/26 21:22:08;;;;;;;11.73;10.50;;;;;;;;;;2615268;54;20490;-79
2023/09/26 21:27:37;;;;;;;11.87;10.80;;;;;;;;;;2615504;54;20430;-79
2023/09/26 21:33:06;;;;;;;10.67;9.53;;;;;;;;;;2614568;54;20389;-79
2023/09/26 21:38:36;;;;;;;11.53;10.43;;;;;;;;;;2614614;54;20379;-80
2023/09/26 21:44:06;;;;;;;12.20;11.00;;;;;;;;;;2614099;39;20954;-80
2023/09/26 21:49:36;;;;;;;12.23;11.03;;;;;;;;;;2613687;54;20398;-80
2023/09/26 21:55:06;;;;;;;14.97;13.50;;;;;;;;;;2614288;54;20464;-79
2023/09/26 22:00:35;;;;;;;11.87;10.87;;;;;;;;;;2614285;31;21012;-80
2023/09/26 22:06:06;;;;;;;10.13;9.30;;;;;;;;;;2615084;54;20354;-80
2023/09/26 22:11:36;;;;;;;12.83;9.47;;;;;;;;;;2613960;54;20387;-80
2023/09/26 22:17:06;;;;;;;11.00;10.10;;;;;;;;;;2615173;54;20910;-80
2023/09/26 22:22:36;;;;;;;10.73;9.83;;;;;;;;;;2612948;54;20383;-79
2023/09/26 22:28:05;;;;;;;9.80;8.80;;;;;;;;;;2612012;54;20933;-79
2023/09/26 22:33:35;;;;;;;10.47;9.57;;;;;;;;;;2614972;54;20387;-80
2023/09/26 22:39:05;;;;;;;11.17;10.30;;;;;;;;;;2615420;54;20383;-80
2023/09/26 22:48:06;;;;;;;10.07;9.27;;;;;;;;;;2615000;54;20411;-80
2023/09/26 22:53:35;;;;;;;10.93;10.03;;;;;;;;;;2610336;54;20375;-79
2023/09/26 22:59:05;;;;;;;10.13;9.23;;;;;;;;;;2612701;54;20414;-81
2023/09/26 23:04:34;;;;;;;12.17;9.67;;;;;;;;;;2614592;54;20390;-80
2023/09/26 23:10:05;;;;;;;10.40;9.40;;;;;;;;;;2614637;54;20387;-81
2023/09/26 23:15:34;;;;;;;10.87;10.00;;;;;;;;;;2613930;54;20370;-81
2023/09/26 23:21:07;;;;;;;10.83;9.80;;;;;;;;;;2613785;54;20410;-81
2023/09/26 23:26:36;;;;;;;11.50;10.43;;;;;;;;;;2614720;39;20764;-80
2023/09/26 23:32:06;;;;;;;10.10;9.30;;;;;;;;;;2614028;54;20447;-80
2023/09/26 23:37:37;;;;;;;11.23;10.23;;;;;;;;;;2613726;54;20403;-80
2023/09/26 23:43:07;;;;;;;10.47;9.57;;;;;;;;;;2612762;54;20419;-80
2023/09/26 23:48:37;;;;;;;10.50;9.70;;;;;;;;;;2614264;54;20383;-81
2023/09/26 23:54:07;;;;;;;10.73;9.90;;;;;;;;;;2614717;54;20359;-79
2023/09/26 23:59:37;;;;;;;10.67;9.77;;;;;;;;;;2613902;54;20403;-80
